Time;durP1;ratioP1;P1;durP2;ratioP2;P2;SDS_P1;SDS_P2;PMS_P1;PMS_P2;Temp;Humidity;BMP_temperature;BMP_pressure;BME280_temperature;BME280_humidity;BME280_pressure;Samples;Min_cycle;Max_cycle;Signal;HPM_P1;HPM_P2
2021/09/12 00:01:29;;;;;;;55.92;38.30;;;17.10;99.90;;;;;;5071385;28;20136;-47
2021/09/12 00:03:55;;;;;;;57.53;39.58;;;17.10;99.90;;;;;;5070778;28;20056;-46
2021/09/12 00:06:21;;;;;;;55.30;38.03;;;17.10;99.90;;;;;;5070724;28;20061;-49
2021/09/12 00:08:47;;;;;;;54.30;37.15;;;17.10;99.90;;;;;;5069929;28;20097;-47
2021/09/12 00:11:13;;;;;;;57.05;36.75;;;17.10;99.90;;;;;;5070490;28;20056;-48
2021/09/12 00:13:41;;;;;;;59.08;37.78;;;17.10;99.90;;;;;;5070343;28;20041;-48
2021/09/12 00:16:07;;;;;;;55.03;37.08;;;17.00;99.90;;;;;;5070356;28;20084;-47
2021/09/12 00:18:33;;;;;;;57.55;37.97;;;17.00;99.90;;;;;;5068648;28;20397;-47
2021/09/12 00:20:59;;;;;;;62.60;38.67;;;17.10;99.90;;;;;;5069301;28;20091;-46
2021/09/12 00:23:25;;;;;;;54.83;38.03;;;17.00;99.90;;;;;;5069881;28;20059;-46
2021/09/12 00:25:51;;;;;;;57.80;37.88;;;17.00;99.90;;;;;;5070663;28;20138;-47
2021/09/12 00:28:17;;;;;;;57.83;38.50;;;17.00;99.90;;;;;;5069723;28;20052;-47
2021/09/12 00:30:43;;;;;;;54.85;36.35;;;17.00;99.90;;;;;;5070474;28;20058;-48
2021/09/12 00:33:09;;;;;;;59.33;37.45;;;17.00;99.90;;;;;;5068640;28;20512;-46
2021/09/12 00:35:36;;;;;;;60.72;38.97;;;16.90;99.90;;;;;;5019609;28;20060;-46
2021/09/12 00:38:03;;;;;;;66.63;39.92;;;16.90;99.90;;;;;;5035354;28;20500;-47
2021/09/12 00:40:30;;;;;;;54.70;35.92;;;16.80;99.90;;;;;;5035887;28;20053;-45
2021/09/12 00:42:56;;;;;;;58.85;36.78;;;16.80;99.90;;;;;;5051187;28;20052;-46
2021/09/12 00:45:22;;;;;;;55.22;36.60;;;16.80;99.90;;;;;;5069650;28;20453;-46
2021/09/12 00:47:48;;;;;;;55.13;37.13;;;16.80;99.90;;;;;;5070445;28;20043;-45
2021/09/12 00:50:16;;;;;;;57.60;38.92;;;16.70;99.90;;;;;;5069526;28;20056;-48
2021/09/12 00:52:45;;;;;;;62.22;37.13;;;16.60;99.90;;;;;;5069204;28;20064;-46
2021/09/12 00:55:13;;;;;;;56.40;37.88;;;16.60;99.90;;;;;;5070437;28;20049;-47
2021/09/12 00:57:43;;;;;;;63.35;39.00;;;16.50;99.90;;;;;;5070302;28;20048;-46
2021/09/12 01:00:11;;;;;;;61.20;39.13;;;16.50;99.90;;;;;;5069201;28;20090;-46
2021/09/12 01:02:37;;;;;;;63.90;38.38;;;16.50;99.90;;;;;;5070531;28;20131;-47
2021/09/12 01:05:16;;;;;;;59.83;36.97;;;16.40;99.90;;;;;;5071132;28;20055;-45
2021/09/12 01:07:42;;;;;;;59.70;36.95;;;16.30;99.90;;;;;;5070388;28;20061;-46
2021/09/12 01:10:10;;;;;;;64.35;37.13;;;16.30;99.90;;;;;;5068590;28;20056;-47
2021/09/12 01:12:37;;;;;;;68.55;38.90;;;16.20;99.90;;;;;;5068151;28;20519;-46
2021/09/12 01:15:04;;;;;;;68.35;38.72;;;16.20;99.90;;;;;;5070094;28;20056;-45
2021/09/12 01:17:31;;;;;;;59.85;36.25;;;16.20;99.90;;;;;;5019123;28;20064;-46
2021/09/12 01:19:58;;;;;;;59.58;39.05;;;16.10;99.90;;;;;;5069908;28;20562;-45
2021/09/12 01:22:24;;;;;;;59.88;37.17;;;16.10;99.90;;;;;;5067660;28;20123;-46
2021/09/12 01:24:51;;;;;;;63.45;36.78;;;16.00;99.90;;;;;;5069580;28;20098;-46
2021/09/12 01:27:17;;;;;;;72.32;39.92;;;16.00;99.90;;;;;;5069494;28;20059;-45
2021/09/12 01:29:43;;;;;;;66.13;40.00;;;16.00;99.90;;;;;;5035631;28;20139;-47
2021/09/12 01:32:10;;;;;;;72.18;40.92;;;16.00;99.90;;;;;;5069151;28;20127;-45
2021/09/12 01:34:36;;;;;;;64.82;38.20;;;16.00;99.90;;;;;;5068888;28;20048;-46
2021/09/12 01:37:02;;;;;;;67.22;38.67;;;15.90;99.90;;;;;;5051574;28;20076;-46
2021/09/12 01:39:28;;;;;;;71.18;40.75;;;15.90;99.90;;;;;;5069063;28;20058;-46
2021/09/12 01:41:54;;;;;;;69.43;41.45;;;15.90;99.90;;;;;;5069217;28;20045;-46
2021/09/12 01:44:26;;;;;;;70.45;39.30;;;15.90;99.90;;;;;;5069422;28;20100;-48
2021/09/12 01:46:57;;;;;;;72.90;40.53;;;15.90;99.90;;;;;;5065221;28;20056;-48
2021/09/12 01:49:24;;;;;;;70.38;40.30;;;15.80;99.90;;;;;;5051540;28;20052;-46
2021/09/12 01:51:52;;;;;;;68.65;37.25;;;15.80;99.90;;;;;;5068411;28;20084;-47
2021/09/12 01:54:18;;;;;;;80.22;43.47;;;15.80;99.90;;;;;;5068819;28;20086;-48
2021/09/12 01:56:45;;;;;;;67.88;40.10;;;15.80;99.90;;;;;;5035041;28;20079;-46
2021/09/12 01:59:11;;;;;;;62.80;37.58;;;15.80;99.90;;;;;;5069098;28;20170;-48
2021/09/12 02:01:38;;;;;;;72.32;38.40;;;15.80;99.90;;;;;;5068802;28;20052;-47
2021/09/12 02:04:04;;;;;;;75.22;40.30;;;15.80;99.90;;;;;;5068328;28;20135;-48
2021/09/12 02:06:33;;;;;;;66.22;38.90;;;15.80;99.90;;;;;;5035223;28;20062;-48
2021/09/12 02:08:59;;;;;;;66.35;37.30;;;15.70;99.90;;;;;;5068590;28;20045;-47
2021/09/12 02:11:26;;;;;;;69.30;37.47;;;15.70;99.90;;;;;;5050355;28;20048;-48
2021/09/12 02:13:53;;;;;;;63.83;38.05;;;15.70;99.90;;;;;;5068013;28;20412;-49
2021/09/12 02:16:21;;;;;;;66.22;36.90;;;15.70;99.90;;;;;;5068662;28;20106;-48
2021/09/12 02:18:47;;;;;;;63.35;37.40;;;15.70;99.90;;;;;;5055092;28;20520;-45
2021/09/12 02:21:13;;;;;;;63.00;36.22;;;15.70;99.90;;;;;;5068604;28;20052;-49
2021/09/12 02:23:39;;;;;;;56.20;33.38;;;15.70;99.90;;;;;;5068013;28;20489;-45
2021/09/12 02:26:05;;;;;;;52.65;31.50;;;15.70;99.90;;;;;;5068729;28;20080;-45
2021/09/12 02:28:31;;;;;;;59.70;35.53;;;15.70;99.90;;;;;;5067855;28;20433;-45
2021/09/12 02:30:58;;;;;;;64.88;36.15;;;15.70;99.90;;;;;;5034296;28;20052;-46
2021/09/12 02:33:24;;;;;;;56.53;34.45;;;15.70;99.90;;;;;;5066245;28;20056;-48
2021/09/12 02:35:50;;;;;;;50.22;31.02;;;15.70;99.90;;;;;;5068532;28;20127;-46
2021/09/12 02:38:16;;;;;;;57.65;33.80;;;15.70;99.90;;;;;;5068008;28;20663;-50
2021/09/12 02:40:42;;;;;;;54.00;32.65;;;15.70;99.90;;;;;;5067992;28;20056;-46
2021/09/12 02:43:08;;;;;;;63.67;35.90;;;15.60;99.90;;;;;;5067028;28;20507;-48
2021/09/12 02:45:35;;;;;;;54.38;34.92;;;15.60;99.90;;;;;;5068312;28;20052;-45
2021/09/12 02:48:04;;;;;;;66.18;37.13;;;15.60;99.90;;;;;;5068171;28;20053;-45
2021/09/12 02:50:30;;;;;;;56.40;33.63;;;15.60;99.90;;;;;;5067746;28;20068;-45
2021/09/12 02:52:56;;;;;;;75.38;38.80;;;15.60;99.90;;;;;;5049650;28;20420;-46
2021/09/12 02:55:23;;;;;;;65.72;36.50;;;15.60;99.90;;;;;;5068537;28;20125;-47
2021/09/12 02:57:49;;;;;;;78.88;39.55;;;15.60;99.90;;;;;;5068049;28;20080;-46
2021/09/12 03:00:15;;;;;;;70.10;38.90;;;15.60;99.90;;;;;;5066891;28;20103;-46
2021/09/12 03:02:41;;;;;;;77.65;38.65;;;15.60;99.90;;;;;;5067299;28;20075;-46
2021/09/12 03:05:08;;;;;;;69.07;37.67;;;15.60;99.90;;;;;;5067347;28;20109;-46
2021/09/12 03:07:34;;;;;;;63.05;36.60;;;15.60;99.90;;;;;;5068139;28;20056;-46
2021/09/12 03:10:03;;;;;;;52.75;34.63;;;15.60;99.90;;;;;;5068224;28;20056;-46
2021/09/12 03:12:32;;;;;;;57.38;32.63;;;15.60;99.90;;;;;;5066519;28;20117;-45
2021/09/12 03:14:59;;;;;;;47.08;30.55;;;15.60;99.90;;;;;;5047872;28;20088;-45
2021/09/12 03:17:25;;;;;;;42.25;27.98;;;15.70;99.90;;;;;;5067896;28;20060;-47
2021/09/12 03:19:51;;;;;;;45.40;28.25;;;15.50;99.90;;;;;;5067314;28;20382;-46
2021/09/12 03:22:17;;;;;;;40.45;26.85;;;15.60;99.90;;;;;;5067898;28;20049;-49
2021/09/12 03:24:43;;;;;;;42.08;26.92;;;15.60;99.90;;;;;;5067935;28;20040;-45
2021/09/12 03:27:09;;;;;;;43.50;27.45;;;15.50;99.90;;;;;;5068111;28;20076;-45
2021/09/12 03:29:35;;;;;;;48.45;27.13;;;15.60;99.90;;;;;;5068224;28;20129;-45
2021/09/12 03:32:02;;;;;;;46.22;28.08;;;15.50;99.90;;;;;;5067429;28;20068;-48
2021/09/12 03:34:28;;;;;;;48.53;29.25;;;15.40;99.90;;;;;;5053450;28;20091;-48
2021/09/12 03:36:55;;;;;;;49.63;29.70;;;15.40;99.90;;;;;;5016947;28;20770;-45
2021/09/12 03:39:21;;;;;;;54.92;32.80;;;15.40;99.90;;;;;;5067456;28;20500;-46
2021/09/12 03:41:48;;;;;;;59.97;32.85;;;15.40;99.90;;;;;;5067456;28;20060;-47
2021/09/12 03:44:14;;;;;;;54.17;31.58;;;15.40;99.90;;;;;;5065640;28;20059;-45
2021/09/12 03:46:40;;;;;;;59.45;31.80;;;15.40;99.90;;;;;;5067722;28;20059;-47
2021/09/12 03:49:06;;;;;;;55.53;31.00;;;15.30;99.90;;;;;;5065659;28;20045;-44
2021/09/12 03:51:32;;;;;;;56.15;31.90;;;15.30;99.90;;;;;;5067651;28;20103;-47
2021/09/12 03:53:59;;;;;;;50.03;31.58;;;15.30;99.90;;;;;;5066536;28;20482;-45
2021/09/12 03:56:26;;;;;;;52.15;31.40;;;15.30;99.90;;;;;;5066630;28;20057;-45
2021/09/12 03:58:52;;;;;;;50.72;29.92;;;15.30;99.90;;;;;;5067486;28;20053;-45
2021/09/12 04:01:19;;;;;;;46.25;29.13;;;15.20;99.90;;;;;;5048998;28;20045;-46
2021/09/12 04:03:45;;;;;;;52.42;29.88;;;15.30;99.90;;;;;;5066644;28;20505;-45
2021/09/12 04:06:11;;;;;;;44.42;27.85;;;15.20;99.90;;;;;;5067124;28;20057;-49
2021/09/12 04:08:37;;;;;;;48.17;28.23;;;15.20;99.90;;;;;;5067501;28;20057;-44
2021/09/12 04:11:03;;;;;;;44.67;26.77;;;15.20;99.90;;;;;;5067445;28;20118;-46
2021/09/12 04:13:29;;;;;;;40.03;26.77;;;15.20;99.90;;;;;;5048984;28;20139;-49
2021/09/12 04:15:56;;;;;;;39.75;25.13;;;15.30;99.90;;;;;;5066679;28;20044;-44
2021/09/12 04:18:22;;;;;;;39.72;24.95;;;15.20;99.90;;;;;;5070621;28;20048;-44
2021/09/12 04:20:48;;;;;;;45.00;25.55;;;15.20;99.90;;;;;;5070185;28;20052;-46
2021/09/12 04:23:14;;;;;;;43.63;25.55;;;15.20;99.90;;;;;;5069188;28;20059;-45
2021/09/12 04:25:40;;;;;;;44.55;26.42;;;15.20;99.90;;;;;;5068618;28;20044;-43
2021/09/12 04:28:06;;;;;;;41.92;26.48;;;15.20;99.90;;;;;;5070212;28;20813;-45
2021/09/12 04:30:32;;;;;;;43.15;26.02;;;15.10;99.90;;;;;;5070671;28;20052;-45
2021/09/12 04:32:58;;;;;;;51.90;26.15;;;15.10;99.90;;;;;;5071165;28;20064;-46
2021/09/12 04:35:24;;;;;;;41.78;25.17;;;15.20;99.90;;;;;;5070254;28;20048;-45
2021/09/12 04:37:50;;;;;;;38.20;24.20;;;15.10;99.90;;;;;;5068521;28;20052;-45
2021/09/12 04:40:16;;;;;;;40.15;23.92;;;15.20;99.90;;;;;;5066279;28;20064;-45
2021/09/12 04:42:42;;;;;;;39.95;23.55;;;15.20;99.90;;;;;;5070351;28;20063;-44
2021/09/12 04:45:09;;;;;;;38.30;24.42;;;15.20;99.90;;;;;;5070367;28;20060;-45
2021/09/12 04:47:35;;;;;;;41.30;24.25;;;15.30;99.90;;;;;;5070049;28;20098;-45
2021/09/12 04:50:01;;;;;;;37.20;24.45;;;15.40;99.90;;;;;;5069876;28;20063;-44
2021/09/12 04:52:28;;;;;;;39.47;22.10;;;15.40;99.90;;;;;;5070409;28;20064;-44
2021/09/12 04:54:54;;;;;;;37.55;22.17;;;15.40;99.90;;;;;;5070402;28;20058;-44
2021/09/12 04:57:20;;;;;;;38.22;21.33;;;15.50;99.90;;;;;;5070504;28;20048;-44
2021/09/12 04:59:46;;;;;;;34.85;20.52;;;15.50;99.90;;;;;;5070147;28;20136;-43
2021/09/12 05:02:12;;;;;;;29.08;21.60;;;15.60;99.90;;;;;;5049045;28;20060;-43
2021/09/12 05:04:41;;;;;;;31.67;20.33;;;15.70;99.90;;;;;;5069391;28;20056;-43
2021/09/12 05:07:07;;;;;;;29.27;18.70;;;15.70;99.90;;;;;;5057121;28;20492;-44
2021/09/12 05:09:33;;;;;;;30.10;19.45;;;15.80;99.90;;;;;;5067445;28;20048;-45
2021/09/12 05:11:59;;;;;;;29.85;19.95;;;15.90;99.90;;;;;;5068925;28;20048;-43
2021/09/12 05:14:26;;;;;;;29.08;19.38;;;15.90;99.90;;;;;;5069391;28;20645;-43
2021/09/12 05:16:53;;;;;;;27.42;17.20;;;15.90;99.90;;;;;;5067628;28;20863;-43
2021/09/12 05:19:19;;;;;;;31.80;17.85;;;16.00;99.90;;;;;;5067888;28;20153;-42
2021/09/12 05:21:45;;;;;;;30.98;17.73;;;16.00;99.90;;;;;;5093172;28;20127;-43
2021/09/12 05:24:11;;;;;;;25.23;17.35;;;16.00;99.90;;;;;;5068199;28;20052;-43
2021/09/12 05:26:37;;;;;;;32.38;18.10;;;16.00;99.90;;;;;;5064122;28;20536;-44
2021/09/12 05:29:03;;;;;;;28.42;17.83;;;16.00;99.90;;;;;;5065974;28;20131;-44
2021/09/12 05:31:29;;;;;;;28.70;17.88;;;16.00;99.90;;;;;;5068254;28;20060;-45
2021/09/12 05:33:55;;;;;;;25.17;15.75;;;16.00;99.90;;;;;;5068573;28;20052;-43
2021/09/12 05:36:21;;;;;;;30.27;16.75;;;16.00;99.90;;;;;;5066936;28;20047;-44
2021/09/12 05:38:48;;;;;;;28.73;17.13;;;16.00;99.90;;;;;;5065242;28;20468;-43
2021/09/12 05:41:14;;;;;;;33.45;16.60;;;16.00;99.90;;;;;;5062633;28;20138;-45
2021/09/12 05:43:40;;;;;;;25.45;16.30;;;16.10;99.90;;;;;;5063624;28;20128;-46
2021/09/12 05:46:09;;;;;;;25.38;15.65;;;16.10;99.90;;;;;;5049218;28;20847;-44
2021/09/12 05:48:37;;;;;;;29.08;16.50;;;16.00;99.90;;;;;;5057411;28;20063;-45
2021/09/12 05:51:07;;;;;;;24.65;16.70;;;16.10;99.90;;;;;;5066359;28;20504;-44
2021/09/12 05:53:33;;;;;;;27.65;17.85;;;16.00;99.90;;;;;;5065567;28;20048;-46
2021/09/12 05:55:59;;;;;;;139.98;124.95;;;16.10;99.90;;;;;;5059778;28;20413;-45
2021/09/12 05:58:26;;;;;;;89.00;78.53;;;16.10;99.90;;;;;;5045687;28;20412;-44
2021/09/12 06:00:54;;;;;;;27.77;17.42;;;16.10;99.90;;;;;;5062847;28;20832;-45
2021/09/12 06:03:25;;;;;;;33.65;25.23;;;16.20;99.90;;;;;;5068636;28;20052;-46
2021/09/12 06:05:52;;;;;;;62.03;51.97;;;16.20;99.90;;;;;;5065601;28;20091;-44
2021/09/12 06:08:21;;;;;;;34.45;23.52;;;16.30;99.90;;;;;;5062611;28;20077;-44
2021/09/12 06:10:47;;;;;;;42.38;30.20;;;16.20;99.90;;;;;;5062812;28;20163;-45
2021/09/12 06:13:14;;;;;;;25.95;17.45;;;16.20;99.90;;;;;;5055346;28;20049;-44
2021/09/12 06:15:43;;;;;;;53.67;47.28;;;16.20;99.90;;;;;;5061241;28;20064;-44
2021/09/12 06:18:11;;;;;;;23.52;18.05;;;16.20;99.90;;;;;;5057891;28;20079;-44
2021/09/12 06:20:42;;;;;;;27.05;20.40;;;16.30;99.90;;;;;;5054714;28;20079;-45
2021/09/12 06:23:08;;;;;;;36.22;29.17;;;16.30;99.90;;;;;;5057494;28;20170;-44
2021/09/12 06:25:37;;;;;;;30.63;22.17;;;16.30;99.90;;;;;;5056753;28;20060;-44
2021/09/12 06:28:11;;;;;;;33.28;21.00;;;16.30;99.90;;;;;;5061714;28;20044;-44
2021/09/12 06:30:38;;;;;;;33.90;20.42;;;16.30;99.90;;;;;;5061067;28;20049;-45
2021/09/12 06:33:04;;;;;;;42.03;34.28;;;16.30;99.90;;;;;;5067877;28;20123;-43
2021/09/12 06:35:30;;;;;;;33.53;23.75;;;16.40;99.90;;;;;;5066359;28;20060;-44
2021/09/12 06:37:56;;;;;;;30.92;20.83;;;16.50;99.90;;;;;;5065005;28;20054;-45
2021/09/12 06:40:30;;;;;;;41.63;33.97;;;16.50;99.90;;;;;;5062174;28;20060;-44
2021/09/12 06:42:58;;;;;;;38.58;27.65;;;16.60;99.90;;;;;;5066450;28;20039;-43
2021/09/12 06:45:26;;;;;;;29.10;21.98;;;16.70;99.90;;;;;;5066019;28;20429;-44
2021/09/12 06:47:54;;;;;;;30.55;20.02;;;16.60;99.90;;;;;;5058038;28;20451;-45
2021/09/12 06:50:24;;;;;;;25.90;16.13;;;16.60;99.90;;;;;;5058741;28;20052;-45
2021/09/12 06:52:53;;;;;;;28.65;18.98;;;16.60;99.90;;;;;;5067338;28;20056;-44
2021/09/12 06:55:20;;;;;;;28.45;19.23;;;16.60;99.90;;;;;;5059462;28;20409;-44
2021/09/12 06:57:48;;;;;;;22.85;15.30;;;16.70;99.90;;;;;;5061088;28;20086;-45
2021/09/12 07:00:15;;;;;;;27.77;16.50;;;16.70;99.90;;;;;;5064700;28;20076;-44
2021/09/12 07:02:41;;;;;;;39.47;31.00;;;16.70;99.90;;;;;;5063690;28;20053;-46
2021/09/12 07:05:08;;;;;;;33.88;22.77;;;16.70;99.90;;;;;;5065758;28;20139;-45
2021/09/12 07:07:35;;;;;;;30.30;20.55;;;16.80;99.90;;;;;;5059241;28;20048;-44
2021/09/12 07:10:01;;;;;;;34.33;21.00;;;16.80;99.90;;;;;;5067939;28;20048;-49
2021/09/12 07:12:29;;;;;;;27.08;19.58;;;16.80;99.90;;;;;;5059394;28;20048;-48
2021/09/12 07:14:58;;;;;;;23.00;16.55;;;16.90;99.90;;;;;;5049202;28;20092;-46
2021/09/12 07:17:25;;;;;;;47.08;38.03;;;16.90;99.90;;;;;;5061642;28;20512;-48
2021/09/12 07:19:51;;;;;;;37.28;32.70;;;17.00;99.90;;;;;;5065480;28;20057;-44
2021/09/12 07:22:17;;;;;;;33.17;20.08;;;17.10;99.90;;;;;;5057315;28;20520;-46
2021/09/12 07:24:43;;;;;;;27.27;18.17;;;17.00;99.90;;;;;;5050762;28;20049;-45
2021/09/12 07:27:09;;;;;;;32.78;25.23;;;17.00;99.90;;;;;;5060615;28;20056;-47
2021/09/12 07:29:35;;;;;;;27.02;17.02;;;17.10;99.90;;;;;;5056710;28;20049;-43
2021/09/12 07:32:01;;;;;;;24.73;20.42;;;17.10;99.90;;;;;;5064837;28;20585;-46
2021/09/12 07:34:27;;;;;;;30.92;22.60;;;17.10;99.90;;;;;;5061275;28;20053;-46
2021/09/12 07:36:53;;;;;;;51.78;43.60;;;17.20;99.90;;;;;;5065200;28;20059;-46
2021/09/12 07:39:19;;;;;;;27.30;19.40;;;17.30;99.90;;;;;;5064288;28;20090;-45
2021/09/12 07:41:46;;;;;;;30.08;23.23;;;17.50;99.90;;;;;;5054794;28;20048;-46
2021/09/12 07:44:14;;;;;;;35.42;22.40;;;17.50;99.90;;;;;;5066496;28;20052;-44
2021/09/12 07:46:40;;;;;;;22.25;18.85;;;17.50;99.90;;;;;;5066651;28;20053;-48
2021/09/12 07:49:06;;;;;;;26.17;19.90;;;17.60;99.90;;;;;;5066719;28;20051;-45
2021/09/12 07:51:32;;;;;;;27.08;18.52;;;17.60;99.90;;;;;;5067937;28;20467;-47
2021/09/12 07:53:58;;;;;;;31.05;23.35;;;17.60;99.90;;;;;;5069241;28;20059;-44
2021/09/12 07:56:24;;;;;;;24.20;17.08;;;17.60;99.90;;;;;;5070392;28;20086;-45
2021/09/12 07:58:50;;;;;;;24.00;17.52;;;17.60;99.90;;;;;;5070051;28;20048;-43
2021/09/12 08:01:16;;;;;;;23.33;16.55;;;17.60;99.90;;;;;;5069859;28;20149;-45
2021/09/12 08:03:43;;;;;;;23.55;16.55;;;17.60;99.90;;;;;;5069078;28;20150;-46
2021/09/12 08:06:09;;;;;;;24.35;16.50;;;17.70;99.90;;;;;;5069809;28;20063;-44
2021/09/12 08:08:35;;;;;;;26.58;18.35;;;17.80;99.90;;;;;;5070230;28;20049;-45
2021/09/12 08:11:01;;;;;;;52.08;40.53;;;17.90;99.90;;;;;;5069351;28;20060;-46
2021/09/12 08:13:27;;;;;;;27.17;19.05;;;17.90;99.90;;;;;;5070333;28;20052;-46
2021/09/12 08:15:53;;;;;;;28.10;20.67;;;17.90;99.90;;;;;;5069921;28;20056;-46
2021/09/12 08:18:22;;;;;;;27.67;20.08;;;17.90;99.90;;;;;;5069734;28;20057;-44
2021/09/12 08:20:48;;;;;;;29.63;18.70;;;18.00;99.90;;;;;;5070069;28;20068;-48
2021/09/12 08:23:14;;;;;;;35.33;27.77;;;17.90;99.90;;;;;;5067903;28;20045;-45
2021/09/12 08:25:40;;;;;;;26.90;20.38;;;17.80;99.90;;;;;;5070143;28;20049;-47
2021/09/12 08:28:06;;;;;;;37.08;22.70;;;17.80;99.90;;;;;;5070801;28;20051;-45
2021/09/12 08:30:32;;;;;;;32.13;25.67;;;17.80;99.90;;;;;;5069739;28;20079;-47
2021/09/12 08:32:58;;;;;;;32.40;24.88;;;17.80;99.90;;;;;;5070032;28;20095;-45
2021/09/12 08:35:27;;;;;;;36.13;25.73;;;17.90;99.90;;;;;;5069617;28;20079;-44
2021/09/12 08:37:55;;;;;;;38.83;30.50;;;17.90;99.90;;;;;;5069422;28;20037;-45
2021/09/12 08:40:21;;;;;;;38.92;31.63;;;17.90;99.90;;;;;;5057116;28;20404;-44
2021/09/12 08:42:48;;;;;;;42.78;35.17;;;17.90;99.90;;;;;;5069381;28;20417;-48
2021/09/12 08:45:14;;;;;;;47.85;39.72;;;17.90;99.90;;;;;;5069796;28;20052;-46
2021/09/12 08:47:42;;;;;;;43.00;33.97;;;18.00;99.90;;;;;;5068884;28;20076;-47
2021/09/12 08:50:09;;;;;;;43.30;28.05;;;18.10;99.90;;;;;;5069627;28;20060;-43
2021/09/12 08:52:35;;;;;;;41.90;35.58;;;18.20;99.90;;;;;;5062391;28;20057;-44
2021/09/12 08:55:01;;;;;;;41.38;27.77;;;18.20;99.90;;;;;;5068446;28;20063;-46
2021/09/12 08:57:27;;;;;;;39.70;28.60;;;18.20;99.90;;;;;;5068393;28;20055;-47
2021/09/12 08:59:53;;;;;;;42.20;29.77;;;18.20;99.90;;;;;;5069177;28;20063;-46
2021/09/12 09:02:27;;;;;;;40.67;28.50;;;18.10;99.90;;;;;;5065832;28;20056;-45
2021/09/12 09:05:04;;;;;;;43.25;27.98;;;18.00;99.90;;;;;;5062814;28;20047;-49
2021/09/12 09:07:32;;;;;;;37.67;27.08;;;18.10;99.90;;;;;;5068120;28;20475;-44
2021/09/12 09:10:03;;;;;;;38.17;26.38;;;18.10;99.90;;;;;;5068683;28;20056;-45
2021/09/12 09:12:35;;;;;;;42.33;27.27;;;18.10;99.90;;;;;;5068488;28;20052;-46
2021/09/12 09:15:03;;;;;;;;;;;18.10;99.90;;;;;;5064636;28;20081;-46
2021/09/12 09:17:34;;;;;;;35.95;26.83;;;18.10;99.90;;;;;;5068850;28;19924;-44
2021/09/12 09:20:00;;;;;;;41.45;27.48;;;18.20;99.90;;;;;;5068907;28;20044;-48
2021/09/12 09:22:34;;;;;;;44.78;31.23;;;18.10;99.90;;;;;;5060598;28;20374;-47
2021/09/12 09:25:09;;;;;;;53.20;42.17;;;18.00;99.90;;;;;;5063279;28;20097;-46
2021/09/12 09:27:57;;;;;;;44.58;29.35;;;17.90;99.90;;;;;;5059656;28;20043;-45
2021/09/12 09:30:32;;;;;;;49.00;36.83;;;17.90;99.90;;;;;;5060788;28;20052;-45
2021/09/12 09:33:14;;;;;;;74.80;60.22;;;17.90;99.90;;;;;;5092091;28;20109;-47
2021/09/12 09:36:14;;;;;;;57.53;41.67;;;17.90;99.90;;;;;;5062446;28;20052;-45
2021/09/12 09:38:40;;;;;;;61.95;41.92;;;17.90;99.90;;;;;;5061187;28;20045;-45
2021/09/12 09:41:10;;;;;;;46.38;30.08;;;17.80;99.90;;;;;;5064375;28;20044;-45
2021/09/12 09:43:49;;;;;;;56.10;42.65;;;17.80;99.90;;;;;;5062403;28;20135;-45
2021/09/12 09:46:29;;;;;;;44.85;29.38;;;17.80;99.90;;;;;;5062744;28;20088;-44
2021/09/12 09:48:55;;;;;;;49.67;33.70;;;17.80;99.90;;;;;;5060133;28;20488;-45
2021/09/12 09:51:25;;;;;;;48.75;32.03;;;17.80;99.90;;;;;;5067036;28;20723;-46
2021/09/12 09:53:55;;;;;;;46.97;28.05;;;17.80;99.90;;;;;;5065591;28;20036;-47
2021/09/12 09:56:23;;;;;;;48.28;30.80;;;17.80;99.90;;;;;;5066176;28;20052;-48
2021/09/12 09:58:50;;;;;;;45.40;28.98;;;17.80;99.90;;;;;;5067919;28;20048;-50
2021/09/12 10:01:16;;;;;;;50.47;29.88;;;17.80;99.90;;;;;;5069154;28;20056;-46
2021/09/12 10:03:45;;;;;;;49.13;30.50;;;17.70;99.90;;;;;;5067881;28;20405;-50
2021/09/12 10:06:13;;;;;;;46.65;29.85;;;17.70;99.90;;;;;;5068691;28;20056;-48
2021/09/12 10:08:41;;;;;;;46.88;29.48;;;17.70;99.90;;;;;;5068817;28;20052;-46
2021/09/12 10:11:09;;;;;;;47.67;29.33;;;17.90;99.90;;;;;;5069168;28;20224;-45
2021/09/12 10:13:38;;;;;;;42.70;29.55;;;17.90;99.90;;;;;;5068503;28;20501;-45
2021/09/12 10:16:07;;;;;;;41.55;29.63;;;18.00;99.90;;;;;;5067007;28;20167;-45
2021/09/12 10:18:33;;;;;;;47.38;30.65;;;18.10;99.90;;;;;;5067563;28;20400;-46
2021/09/12 10:21:32;;;;;;;47.72;30.30;;;18.10;99.90;;;;;;5068144;28;20140;-46
2021/09/12 10:24:06;;;;;;;39.22;28.77;;;18.10;99.90;;;;;;5024873;28;20055;-46
2021/09/12 10:26:42;;;;;;;47.05;29.48;;;18.10;99.90;;;;;;5024783;28;20053;-51
2021/09/12 10:29:45;;;;;;;41.05;30.30;;;18.10;99.90;;;;;;5024440;28;20058;-50
2021/09/12 10:32:30;;;;;;;39.50;28.30;;;18.20;99.90;;;;;;5024877;28;20127;-46
2021/09/12 10:35:15;;;;;;;42.42;28.42;;;18.20;99.90;;;;;;5042539;28;20100;-46
2021/09/12 10:38:05;;;;;;;42.97;29.02;;;18.20;99.90;;;;;;5024849;28;20132;-51
2021/09/12 10:41:02;;;;;;;43.80;30.02;;;18.30;99.90;;;;;;5025447;28;20080;-47
2021/09/12 10:43:30;;;;;;;40.75;29.17;;;18.40;99.90;;;;;;4994487;28;20136;-50
2021/09/12 10:46:05;;;;;;;39.20;27.90;;;18.40;99.90;;;;;;4993299;28;20092;-43
2021/09/12 10:48:37;;;;;;;35.38;25.85;;;18.40;99.90;;;;;;4992149;28;20565;-46
2021/09/12 10:51:23;;;;;;;43.65;29.50;;;18.40;99.90;;;;;;5024881;28;20517;-49
2021/09/12 10:53:54;;;;;;;41.40;30.15;;;18.50;99.90;;;;;;5011791;28;20639;-45
2021/09/12 10:56:20;;;;;;;;;;;18.40;99.90;;;;;;5025743;28;20449;-49
2021/09/12 10:58:49;;;;;;;41.55;29.30;;;18.30;99.90;;;;;;5014953;28;20415;-47
2021/09/12 11:01:26;;;;;;;44.13;29.20;;;18.50;99.90;;;;;;5067621;28;20175;-51
2021/09/12 11:03:58;;;;;;;40.67;30.35;;;18.70;99.90;;;;;;5067940;28;20083;-49
2021/09/12 11:06:33;;;;;;;42.92;30.45;;;18.90;99.90;;;;;;5033041;28;20092;-50
2021/09/12 11:09:15;;;;;;;40.42;29.40;;;18.90;99.90;;;;;;5050469;28;20461;-45
2021/09/12 11:11:47;;;;;;;45.58;30.02;;;19.00;99.90;;;;;;5066230;28;20660;-48
2021/09/12 11:14:17;;;;;;;41.25;30.88;;;19.40;99.90;;;;;;5068522;28;20155;-47
2021/09/12 11:16:43;;;;;;;38.65;29.90;;;19.50;99.90;;;;;;5067643;28;20127;-45
2021/09/12 11:19:10;;;;;;;40.10;27.98;;;19.60;99.90;;;;;;5068519;28;20060;-45
2021/09/12 11:21:39;;;;;;;35.63;27.55;;;20.10;99.90;;;;;;5067817;28;20061;-46
2021/09/12 11:24:14;;;;;;;38.25;29.73;;;20.40;99.90;;;;;;5066587;28;20059;-46
2021/09/12 11:26:44;;;;;;;35.97;28.95;;;20.40;99.90;;;;;;5068981;28;20088;-45
2021/09/12 11:29:25;;;;;;;34.83;28.73;;;20.40;99.90;;;;;;5071610;28;20084;-44
2021/09/12 11:31:54;;;;;;;37.65;29.63;;;20.30;99.90;;;;;;5053121;28;20084;-47
2021/09/12 11:34:23;;;;;;;43.92;30.70;;;20.20;99.90;;;;;;5071117;28;20053;-46
2021/09/12 11:36:52;;;;;;;;;;;20.50;99.90;;;;;;5053949;28;20159;-46
2021/09/12 11:39:27;;;;;;;31.67;26.27;;;21.00;99.90;;;;;;5103895;28;19925;-47
2021/09/12 11:41:59;;;;;;;32.15;27.15;;;21.50;99.90;;;;;;5070525;28;20048;-47
2021/09/12 11:44:33;;;;;;;33.10;26.73;;;21.90;99.90;;;;;;5071222;28;20063;-46
2021/09/12 11:47:03;;;;;;;30.60;24.88;;;22.60;99.90;;;;;;5070574;28;20056;-47
2021/09/12 11:49:29;;;;;;;31.17;25.17;;;22.80;99.90;;;;;;5070489;28;20062;-46
2021/09/12 11:51:55;;;;;;;31.98;24.30;;;23.10;99.90;;;;;;5070852;28;20052;-48
2021/09/12 11:54:28;;;;;;;26.27;23.42;;;23.00;99.90;;;;;;5070003;28;20103;-47
2021/09/12 11:57:06;;;;;;;25.85;22.40;;;23.20;99.90;;;;;;5066106;28;20169;-49
2021/09/12 11:59:42;;;;;;;23.97;21.43;;;23.20;99.90;;;;;;5066421;28;20082;-46
2021/09/12 12:02:14;;;;;;;26.10;21.95;;;23.60;99.90;;;;;;5063890;28;20048;-50
2021/09/12 12:04:42;;;;;;;27.70;23.42;;;23.90;99.90;;;;;;5065321;28;20056;-48
2021/09/12 12:07:08;;;;;;;27.08;21.80;;;23.60;99.90;;;;;;5046764;28;20060;-46
2021/09/12 12:09:48;;;;;;;26.92;23.48;;;23.40;99.90;;;;;;5057044;28;20053;-44
2021/09/12 12:12:19;;;;;;;24.80;22.27;;;23.40;99.90;;;;;;5064425;28;20056;-44
2021/09/12 12:15:00;;;;;;;27.40;23.43;;;23.30;99.90;;;;;;5060327;28;20083;-48
2021/09/12 12:17:27;;;;;;;26.52;23.65;;;23.10;99.90;;;;;;5062233;28;21187;-45
2021/09/12 12:19:57;;;;;;;28.55;25.75;;;23.00;99.90;;;;;;5061495;28;20091;-44
2021/09/12 12:22:37;;;;;;;28.52;25.70;;;22.70;99.90;;;;;;5063243;28;20044;-47
2021/09/12 12:25:05;;;;;;;35.13;31.27;;;22.20;99.90;;;;;;5057204;28;20041;-46
2021/09/12 12:27:39;;;;;;;30.80;27.40;;;21.90;99.90;;;;;;5066505;28;20052;-45
2021/09/12 12:30:07;;;;;;;29.33;26.23;;;21.50;99.90;;;;;;5060832;28;20054;-45
2021/09/12 12:32:33;;;;;;;25.35;22.65;;;21.40;99.90;;;;;;5065773;28;20247;-45
2021/09/12 12:35:12;;;;;;;27.27;24.33;;;21.30;99.90;;;;;;5067191;28;20564;-45